createdAt,value
2022-08-03T00:01:45.638Z,2.83
2022-08-03T00:04:14.077Z,2.80
2022-08-03T00:06:42.532Z,2.72
2022-08-03T00:09:12.294Z,3.20
2022-08-03T00:11:40.815Z,2.63
2022-08-03T00:14:09.305Z,3.15
2022-08-03T00:16:37.680Z,3.13
2022-08-03T00:19:06.078Z,3.15
2022-08-03T00:21:34.631Z,3.30
2022-08-03T00:24:03.022Z,2.80
2022-08-03T00:26:32.917Z,3.03
2022-08-03T00:29:01.320Z,3.05
2022-08-03T00:31:44.956Z,2.90
2022-08-03T00:34:18.042Z,3.10
2022-08-03T00:37:04.587Z,3.03
2022-08-03T00:39:32.953Z,2.80
2022-08-03T00:42:05.498Z,3.25
2022-08-03T00:44:33.889Z,3.25
2022-08-03T00:47:02.230Z,2.90
2022-08-03T00:49:30.664Z,3.05
2022-08-03T00:51:59.083Z,2.75
2022-08-03T00:54:27.685Z,2.83
2022-08-03T00:57:00.159Z,2.90
2022-08-03T00:59:31.587Z,2.90
2022-08-03T01:01:59.994Z,2.55
2022-08-03T01:04:28.463Z,2.60
2022-08-03T01:07:00.458Z,2.80
2022-08-03T01:09:31.161Z,2.63
2022-08-03T01:12:03.015Z,2.95
2022-08-03T01:14:35.816Z,2.75
2022-08-03T01:17:07.094Z,2.97
2022-08-03T01:19:48.681Z,2.60
2022-08-03T01:22:25.128Z,2.97
2022-08-03T01:24:59.503Z,3.28
2022-08-03T01:27:31.225Z,2.97
2022-08-03T01:30:03.445Z,3.00
2022-08-03T01:32:58.315Z,2.50
2022-08-03T01:35:38.863Z,3.25
2022-08-03T01:38:09.107Z,2.80
2022-08-03T01:40:38.605Z,2.72
2022-08-03T01:43:08.363Z,3.47
2022-08-03T01:45:38.780Z,3.17
2022-08-03T01:48:09.386Z,2.90
2022-08-03T01:50:38.268Z,2.45
2022-08-03T01:53:07.869Z,3.10
2022-08-03T01:55:36.675Z,3.00
2022-08-03T01:58:07.043Z,2.92
2022-08-03T02:00:37.436Z,3.10
2022-08-03T02:03:08.461Z,3.05
2022-08-03T02:05:37.527Z,3.20
2022-08-03T02:08:07.005Z,3.10
2022-08-03T02:10:39.718Z,3.25
2022-08-03T02:13:09.363Z,2.67
2022-08-03T02:15:38.764Z,3.00
2022-08-03T02:18:09.725Z,3.30
2022-08-03T02:20:39.072Z,2.75
2022-08-03T02:23:07.734Z,3.30
2022-08-03T02:25:37.354Z,2.50
2022-08-03T02:28:08.819Z,3.13
2022-08-03T02:30:39.221Z,2.92
2022-08-03T02:33:10.981Z,2.90
2022-08-03T02:35:41.594Z,3.13
2022-08-03T02:38:11.977Z,3.00
2022-08-03T02:40:41.721Z,2.95
2022-08-03T02:43:11.129Z,3.47
2022-08-03T02:45:45.601Z,3.30
2022-08-03T02:48:18.934Z,3.00
2022-08-03T02:50:48.652Z,2.92
2022-08-03T02:53:18.810Z,3.30
2022-08-03T02:55:48.993Z,3.50
2022-08-03T02:58:19.454Z,3.35
2022-08-03T03:00:48.118Z,3.35
2022-08-03T03:03:17.912Z,3.30
2022-08-03T03:05:53.596Z,3.38
2022-08-03T03:08:25.932Z,3.33
2022-08-03T03:10:58.586Z,4.03
2022-08-03T03:13:27.358Z,3.78
2022-08-03T03:15:56.586Z,3.53
2022-08-03T03:18:26.996Z,3.38
2022-08-03T03:20:55.922Z,3.67
2022-08-03T03:23:25.233Z,3.78
2022-08-03T03:25:54.783Z,3.88
2022-08-03T03:28:23.519Z,3.42
2022-08-03T03:30:53.459Z,3.22
2022-08-03T03:33:22.029Z,3.40
2022-08-03T03:35:51.854Z,3.80
2022-08-03T03:38:20.715Z,3.90
2022-08-03T03:40:49.370Z,3.85
2022-08-03T03:43:18.544Z,4.00
2022-08-03T03:45:47.981Z,4.15
2022-08-03T03:48:16.524Z,3.78
2022-08-03T03:50:45.420Z,3.92
2022-08-03T03:53:16.348Z,3.85
2022-08-03T03:56:01.657Z,3.55
2022-08-03T03:58:31.561Z,3.83
2022-08-03T04:01:00.048Z,3.90
2022-08-03T04:03:28.513Z,3.60
2022-08-03T04:06:14.497Z,4.10
2022-08-03T04:09:13.391Z,4.32
2022-08-03T04:11:43.451Z,3.75
2022-08-03T04:14:13.739Z,4.78
2022-08-03T04:16:44.055Z,4.30
2022-08-03T04:19:13.762Z,4.07
2022-08-03T04:21:43.257Z,4.35
2022-08-03T04:24:13.692Z,4.22
2022-08-03T04:26:43.536Z,4.00
2022-08-03T04:29:12.818Z,4.30
2022-08-03T04:31:41.886Z,4.50
2022-08-03T04:34:10.337Z,4.45
2022-08-03T04:36:40.233Z,3.60
2022-08-03T04:39:10.025Z,4.47
2022-08-03T04:42:04.289Z,5.10
2022-08-03T04:44:29.801Z,4.45
2022-08-03T04:46:58.612Z,4.55
2022-08-03T04:49:27.348Z,4.32
2022-08-03T04:51:55.795Z,4.22
2022-08-03T04:54:24.177Z,4.30
2022-08-03T04:56:53.960Z,4.68
2022-08-03T04:59:22.304Z,4.75
2022-08-03T05:01:50.756Z,4.40
2022-08-03T05:04:20.535Z,4.57
2022-08-03T05:06:55.167Z,4.35
2022-08-03T05:09:50.783Z,4.13
2022-08-03T05:12:14.345Z,4.30
2022-08-03T05:14:43.049Z,4.28
2022-08-03T05:17:11.646Z,4.50
2022-08-03T05:19:40.022Z,4.78
2022-08-03T05:22:08.417Z,4.57
2022-08-03T05:24:36.753Z,4.80
2022-08-03T05:27:05.481Z,5.00
2022-08-03T05:29:35.197Z,4.20
2022-08-03T05:32:08.001Z,4.10
2022-08-03T05:34:36.765Z,4.95
2022-08-03T05:37:05.441Z,4.47
2022-08-03T05:39:33.771Z,4.80
2022-08-03T05:42:03.761Z,4.10
2022-08-03T05:44:32.216Z,4.80
2022-08-03T05:47:01.963Z,4.43
2022-08-03T05:49:30.391Z,4.72
2022-08-03T05:52:14.179Z,4.05
2022-08-03T05:54:55.997Z,4.03
2022-08-03T05:57:25.449Z,4.93
2022-08-03T05:59:54.706Z,4.20
2022-08-03T06:02:28.317Z,4.57
2022-08-03T06:04:56.677Z,4.63
2022-08-03T06:07:25.276Z,4.53
2022-08-03T06:09:56.636Z,4.25
2022-08-03T06:12:42.201Z,4.60
2022-08-03T06:15:11.726Z,5.03
2022-08-03T06:17:48.040Z,4.28
2022-08-03T06:20:18.145Z,4.57
2022-08-03T06:22:51.320Z,4.85
2022-08-03T06:25:28.908Z,4.10
2022-08-03T06:27:57.288Z,4.70
2022-08-03T06:30:25.746Z,4.95
2022-08-03T06:32:55.501Z,4.30
2022-08-03T06:35:24.013Z,4.50
2022-08-03T06:37:53.337Z,4.43
2022-08-03T06:40:28.545Z,4.65
2022-08-03T06:42:57.181Z,5.30
2022-08-03T06:45:25.832Z,4.38
2022-08-03T06:48:05.377Z,4.60
2022-08-03T06:50:33.820Z,4.30
2022-08-03T06:53:02.311Z,4.00
2022-08-03T06:55:30.717Z,4.72
2022-08-03T06:57:59.827Z,4.65
2022-08-03T07:00:31.902Z,4.78
2022-08-03T07:03:00.323Z,4.30
2022-08-03T07:05:30.641Z,4.28
2022-08-03T07:07:59.268Z,4.45
2022-08-03T07:10:27.757Z,4.85
2022-08-03T07:12:56.986Z,4.35
2022-08-03T07:15:54.265Z,4.07
2022-08-03T07:18:13.918Z,4.28
2022-08-03T07:20:43.704Z,4.85
2022-08-03T07:23:18.816Z,3.97
2022-08-03T07:25:48.048Z,4.53
2022-08-03T07:28:16.428Z,4.20
2022-08-03T07:30:44.810Z,4.10
2022-08-03T07:33:13.281Z,4.30
2022-08-03T07:35:41.704Z,3.88
2022-08-03T07:38:11.439Z,4.07
2022-08-03T07:40:44.428Z,3.22
2022-08-03T07:43:14.476Z,2.85
2022-08-03T07:45:42.873Z,3.47
2022-08-03T07:48:12.594Z,3.03
2022-08-03T07:50:41.316Z,3.28
2022-08-03T07:53:11.039Z,3.15
2022-08-03T07:55:39.391Z,2.63
2022-08-03T07:58:09.750Z,3.22
2022-08-03T08:00:38.420Z,3.08
2022-08-03T08:03:06.832Z,2.95
2022-08-03T08:05:35.608Z,2.63
2022-08-03T08:08:04.275Z,2.90
2022-08-03T08:10:34.062Z,3.30
2022-08-03T08:13:02.869Z,2.90
2022-08-03T08:15:32.773Z,2.90
2022-08-03T08:18:02.563Z,2.92
2022-08-03T08:20:32.953Z,3.78
2022-08-03T08:23:19.959Z,2.80
2022-08-03T08:25:54.160Z,3.53
2022-08-03T08:28:32.448Z,3.42
2022-08-03T08:31:01.824Z,4.03
2022-08-03T08:33:47.856Z,4.25
2022-08-03T08:36:18.591Z,2.90
2022-08-03T08:38:46.996Z,3.22
2022-08-03T08:41:16.997Z,2.70
2022-08-03T08:43:45.412Z,3.47
2022-08-03T08:46:23.515Z,3.35
2022-08-03T08:48:53.069Z,3.25
2022-08-03T08:51:22.397Z,3.95
2022-08-03T08:53:53.827Z,3.50
2022-08-03T08:56:25.456Z,5.32
2022-08-03T08:58:54.831Z,5.57
2022-08-03T09:01:23.311Z,4.57
2022-08-03T09:03:53.454Z,4.43
2022-08-03T09:06:22.346Z,4.30
2022-08-03T09:08:50.824Z,3.92
2022-08-03T09:12:00.355Z,4.63
2022-08-03T09:14:39.248Z,4.18
2022-08-03T09:17:02.684Z,3.90
2022-08-03T09:19:31.227Z,3.83
2022-08-03T09:22:09.492Z,3.20
2022-08-03T09:24:41.555Z,3.30
2022-08-03T09:27:13.833Z,3.67
2022-08-03T09:29:43.213Z,4.47
2022-08-03T09:32:12.672Z,3.60
2022-08-03T09:34:41.224Z,3.70
2022-08-03T09:37:15.034Z,3.47
2022-08-03T09:39:43.622Z,2.88
2022-08-03T09:42:15.431Z,3.03
2022-08-03T09:44:44.921Z,3.03
2022-08-03T09:47:13.780Z,2.80
2022-08-03T09:49:43.060Z,3.10
2022-08-03T09:52:39.240Z,2.65
2022-08-03T09:55:04.636Z,2.80
2022-08-03T09:57:54.396Z,2.80
2022-08-03T10:00:22.910Z,3.30
2022-08-03T10:02:51.295Z,2.40
2022-08-03T10:05:33.124Z,3.05
2022-08-03T10:08:01.503Z,3.08
2022-08-03T10:10:45.397Z,2.80
2022-08-03T10:13:15.564Z,3.08
2022-08-03T10:16:21.153Z,2.00
2022-08-03T10:18:32.334Z,2.30
2022-08-03T10:21:04.368Z,2.13
2022-08-03T10:23:35.849Z,2.10
2022-08-03T10:26:05.020Z,2.30
2022-08-03T10:28:39.259Z,1.75
2022-08-03T10:31:10.199Z,1.73
2022-08-03T10:33:52.044Z,1.63
2022-08-03T10:36:22.120Z,1.77
2022-08-03T10:38:52.693Z,1.85
2022-08-03T10:41:21.940Z,1.75
2022-08-03T10:43:52.842Z,1.90
2022-08-03T10:46:21.476Z,2.22
2022-08-03T10:48:50.773Z,1.90
2022-08-03T10:51:19.175Z,2.00
2022-08-03T10:53:54.346Z,1.63
2022-08-03T10:57:06.311Z,1.70
2022-08-03T11:00:05.594Z,1.92
2022-08-03T11:02:52.610Z,1.80
2022-08-03T11:05:27.869Z,1.95
2022-08-03T11:08:11.093Z,2.17
2022-08-03T11:10:39.607Z,2.00
2022-08-03T11:13:08.960Z,1.90
2022-08-03T11:15:38.930Z,1.80
2022-08-03T11:18:11.543Z,1.83
2022-08-03T11:20:46.894Z,1.73
2022-08-03T11:23:15.715Z,1.80
2022-08-03T11:26:02.567Z,1.90
2022-08-03T11:28:30.948Z,2.15
2022-08-03T11:31:48.523Z,2.30
2022-08-03T11:34:16.182Z,2.08
2022-08-03T11:37:02.960Z,1.98
2022-08-03T11:39:40.356Z,1.83
2022-08-03T11:42:23.592Z,1.90
2022-08-03T11:44:52.308Z,2.00
2022-08-03T11:47:22.653Z,2.15
2022-08-03T11:49:52.359Z,1.92
2022-08-03T11:52:26.947Z,1.85
2022-08-03T11:54:57.534Z,1.70
2022-08-03T11:59:16.499Z,2.20
2022-08-03T12:00:27.099Z,1.92
2022-08-03T12:03:05.268Z,1.80
2022-08-03T12:05:41.143Z,1.67
2022-08-03T12:08:10.674Z,1.80
2022-08-03T12:10:40.264Z,2.05
2022-08-03T12:14:44.926Z,1.75
2022-08-03T12:15:59.447Z,2.33
2022-08-03T12:18:29.634Z,1.90
2022-08-03T12:21:06.302Z,1.63
2022-08-03T12:23:37.856Z,1.90
2022-08-03T12:26:08.262Z,1.95
2022-08-03T12:28:38.326Z,1.73
2022-08-03T12:31:09.600Z,1.50
2022-08-03T12:33:53.488Z,1.52
2022-08-03T12:36:23.772Z,1.95
2022-08-03T12:38:57.020Z,1.75
2022-08-03T12:41:30.297Z,2.17
2022-08-03T12:43:59.482Z,1.73
2022-08-03T12:46:32.303Z,1.90
2022-08-03T12:49:05.929Z,1.90
2022-08-03T12:51:36.900Z,1.70
2022-08-03T12:54:06.316Z,1.73
2022-08-03T12:56:35.103Z,1.70
2022-08-03T12:59:03.987Z,2.00
2022-08-03T13:01:54.884Z,2.03
2022-08-03T13:04:33.626Z,1.70
2022-08-03T13:07:04.717Z,2.00
2022-08-03T13:09:43.100Z,1.90
2022-08-03T13:12:12.532Z,1.60
2022-08-03T13:14:41.816Z,1.95
2022-08-03T13:17:11.015Z,1.70
2022-08-03T13:19:40.163Z,1.80
2022-08-03T13:22:16.886Z,1.73
2022-08-03T13:24:49.217Z,1.67
2022-08-03T13:27:59.436Z,2.10
2022-08-03T13:30:06.348Z,1.90
2022-08-03T13:32:35.075Z,1.73
2022-08-03T13:35:03.885Z,1.98
2022-08-03T13:37:33.819Z,1.77
2022-08-03T13:40:04.510Z,1.90
2022-08-03T13:42:34.531Z,1.70
2022-08-03T13:45:03.877Z,1.58
2022-08-03T13:47:32.365Z,1.50
2022-08-03T13:50:02.810Z,1.60
2022-08-03T13:52:34.158Z,1.73
2022-08-03T13:55:02.837Z,1.70
2022-08-03T13:58:02.350Z,1.67
2022-08-03T14:00:28.169Z,1.67
2022-08-03T14:03:03.857Z,1.88
2022-08-03T14:05:32.852Z,1.60
2022-08-03T14:08:04.920Z,1.50
2022-08-03T14:10:33.755Z,1.13
2022-08-03T14:13:02.270Z,1.40
2022-08-03T14:15:30.669Z,1.40
2022-08-03T14:17:59.220Z,1.33
2022-08-03T14:20:38.496Z,1.33
2022-08-03T14:23:09.516Z,1.30
2022-08-03T14:25:44.455Z,1.27
2022-08-03T14:28:22.650Z,1.58
2022-08-03T14:30:51.752Z,1.33
2022-08-03T14:33:20.228Z,1.20
2022-08-03T14:35:48.621Z,1.30
2022-08-03T14:38:18.582Z,1.20
2022-08-03T14:40:47.003Z,1.20
2022-08-03T14:43:16.565Z,1.52
2022-08-03T14:45:44.951Z,1.35
2022-08-03T14:50:29.394Z,1.45
2022-08-03T14:51:02.365Z,1.25
2022-08-03T14:53:32.165Z,1.30
2022-08-03T14:56:00.581Z,1.30
2022-08-03T14:58:29.018Z,1.45
2022-08-03T15:00:57.733Z,1.52
2022-08-03T15:03:26.812Z,1.50
2022-08-03T15:05:56.641Z,1.35
2022-08-03T15:08:26.100Z,1.35
2022-08-03T15:10:56.203Z,1.13
2022-08-03T15:13:25.403Z,1.60
2022-08-03T15:15:53.866Z,1.38
2022-08-03T15:18:22.418Z,1.50
2022-08-03T15:20:51.031Z,1.30
2022-08-03T15:23:19.932Z,1.55
2022-08-03T15:26:28.152Z,1.20
2022-08-03T15:28:38.278Z,1.25
2022-08-03T15:31:07.504Z,1.30
2022-08-03T15:33:35.913Z,1.25
2022-08-03T15:36:06.733Z,1.50
2022-08-03T15:38:35.109Z,1.40
2022-08-03T15:41:03.681Z,1.35
2022-08-03T15:43:32.348Z,1.25
2022-08-03T15:46:28.207Z,1.40
2022-08-03T15:48:51.772Z,1.38
2022-08-03T15:51:20.215Z,1.10
2022-08-03T15:53:48.601Z,1.42
2022-08-03T15:56:18.894Z,1.60
2022-08-03T15:59:03.204Z,1.98
2022-08-03T16:01:37.776Z,1.60
2022-08-03T16:04:06.338Z,1.60
2022-08-03T16:06:36.299Z,1.40
2022-08-03T16:09:24.325Z,1.50
2022-08-03T16:11:55.765Z,1.45
2022-08-03T16:14:32.361Z,1.52
2022-08-03T16:17:05.496Z,1.50
2022-08-03T16:19:34.088Z,1.50
2022-08-03T16:22:04.124Z,1.60
2022-08-03T16:24:32.896Z,1.60
2022-08-03T16:27:01.671Z,1.45
2022-08-03T16:29:30.507Z,1.50
2022-08-03T16:31:59.015Z,1.70
2022-08-03T16:34:28.740Z,1.85
2022-08-03T16:36:57.161Z,1.50
2022-08-03T16:39:25.589Z,1.60
2022-08-03T16:42:01.082Z,1.48
2022-08-03T16:44:31.572Z,1.58
2022-08-03T16:47:00.069Z,1.95
2022-08-03T16:49:54.245Z,1.25
2022-08-03T16:52:18.422Z,1.58
2022-08-03T16:54:50.541Z,1.55
2022-08-03T16:57:59.364Z,1.70
2022-08-03T17:00:10.378Z,1.88
2022-08-03T17:02:39.209Z,1.80
2022-08-03T17:05:12.899Z,1.67
2022-08-03T17:07:42.357Z,1.73
2022-08-03T17:10:15.296Z,1.90
2022-08-03T17:12:50.806Z,1.70
2022-08-03T17:15:19.311Z,1.60
2022-08-03T17:18:09.132Z,1.70
2022-08-03T17:20:51.200Z,2.00
2022-08-03T17:23:35.383Z,1.50
2022-08-03T17:26:07.586Z,2.10
2022-08-03T17:28:52.008Z,2.20
2022-08-03T17:31:31.843Z,1.73
2022-08-03T17:34:01.823Z,2.00
2022-08-03T17:39:31.199Z,2.13
2022-08-03T17:44:58.500Z,2.00
2022-08-03T17:47:41.785Z,2.05
2022-08-03T17:50:25.404Z,2.15
2022-08-03T17:52:58.634Z,2.10
2022-08-03T17:55:55.732Z,2.22
2022-08-03T17:58:22.830Z,2.42
2022-08-03T18:01:58.184Z,2.20
2022-08-03T18:04:10.874Z,2.00
2022-08-03T18:06:56.361Z,2.25
2022-08-03T18:10:04.288Z,2.30
2022-08-03T18:12:17.384Z,2.08
2022-08-03T18:14:57.773Z,2.55
2022-08-03T18:17:55.520Z,1.92
2022-08-03T18:20:31.237Z,2.22
2022-08-03T18:23:04.981Z,2.17
2022-08-03T18:25:45.181Z,2.20
2022-08-03T18:28:15.337Z,2.22
2022-08-03T18:30:54.326Z,2.33
2022-08-03T18:34:19.156Z,2.17
2022-08-03T18:36:18.074Z,2.05
2022-08-03T18:38:53.932Z,2.22
2022-08-03T18:41:32.886Z,2.25
2022-08-03T18:44:08.566Z,2.42
2022-08-03T18:46:55.637Z,2.67
2022-08-03T18:49:29.445Z,1.98
2022-08-03T18:52:02.160Z,2.20
2022-08-03T18:54:58.971Z,2.33
2022-08-03T18:57:30.209Z,2.40
2022-08-03T19:00:05.260Z,2.60
2022-08-03T19:02:41.922Z,1.88
2022-08-03T19:05:18.396Z,2.47
2022-08-03T19:07:58.421Z,2.40
2022-08-03T19:10:31.452Z,2.17
2022-08-03T19:13:05.119Z,2.38
2022-08-03T19:15:50.982Z,2.42
2022-08-03T19:18:20.145Z,2.03
2022-08-03T19:20:51.582Z,2.30
2022-08-03T19:23:25.102Z,3.08
2022-08-03T19:25:53.779Z,3.33
2022-08-03T19:28:29.776Z,3.90
2022-08-03T19:31:02.623Z,3.13
2022-08-03T19:33:55.966Z,2.80
2022-08-03T19:36:27.481Z,2.53
2022-08-03T19:38:57.047Z,2.58
2022-08-03T19:41:26.378Z,2.85
2022-08-03T19:44:04.455Z,2.70
2022-08-03T19:46:35.862Z,2.63
2022-08-03T19:49:15.469Z,2.53
2022-08-03T19:52:02.453Z,2.83
2022-08-03T19:54:39.634Z,2.30
2022-08-03T19:57:17.836Z,2.65
2022-08-03T19:59:50.646Z,2.35
2022-08-03T20:02:27.310Z,2.80
2022-08-03T20:04:57.223Z,3.03
2022-08-03T20:07:26.279Z,2.80
2022-08-03T20:09:56.580Z,2.90
2022-08-03T20:12:28.276Z,3.00
2022-08-03T20:14:59.234Z,2.40
2022-08-03T20:17:54.111Z,3.15
2022-08-03T20:20:20.299Z,3.00
2022-08-03T20:22:53.023Z,2.58
2022-08-03T20:25:38.068Z,3.47
2022-08-03T20:28:13.801Z,2.60
2022-08-03T20:30:47.124Z,2.53
2022-08-03T20:33:18.787Z,2.50
2022-08-03T20:35:49.354Z,2.35
2022-08-03T20:38:18.483Z,2.88
2022-08-03T20:40:48.267Z,2.88
2022-08-03T20:43:16.696Z,2.45
2022-08-03T20:46:01.244Z,2.60
2022-08-03T20:48:38.727Z,2.78
2022-08-03T20:51:19.757Z,3.28
2022-08-03T20:54:00.410Z,3.22
2022-08-03T20:56:31.197Z,2.80
2022-08-03T20:59:02.958Z,3.13
2022-08-03T21:01:36.316Z,3.30
2022-08-03T21:04:06.780Z,2.60
2022-08-03T21:06:38.306Z,2.75
2022-08-03T21:09:08.762Z,2.80
2022-08-03T21:11:42.137Z,2.60
2022-08-03T21:13:04.492Z,1.98
2022-08-03T21:14:15.030Z,4.32
2022-08-03T21:16:46.458Z,3.78
2022-08-03T21:19:15.168Z,3.50
2022-08-03T21:21:46.461Z,3.08
2022-08-03T21:24:15.358Z,2.60
2022-08-03T21:26:44.673Z,3.15
2022-08-03T21:29:14.254Z,2.97
2022-08-03T21:31:42.828Z,3.40
2022-08-03T21:34:12.801Z,3.35
2022-08-03T21:36:41.402Z,2.95
2022-08-03T21:39:10.867Z,2.95
2022-08-03T21:41:40.076Z,2.90
2022-08-03T21:44:09.316Z,2.15
2022-08-03T21:46:38.838Z,3.10
2022-08-03T21:50:07.263Z,2.95
2022-08-03T21:51:59.929Z,2.58
2022-08-03T21:54:33.765Z,3.00
2022-08-03T21:57:04.561Z,2.75
2022-08-03T21:59:34.849Z,2.53
2022-08-03T22:02:03.780Z,3.03
2022-08-03T22:04:53.510Z,2.42
2022-08-03T22:07:24.022Z,2.55
2022-08-03T22:09:53.358Z,3.20
2022-08-03T22:12:25.336Z,3.30
2022-08-03T22:15:01.268Z,2.70
2022-08-03T22:17:54.849Z,3.28
2022-08-03T22:20:19.396Z,3.00
2022-08-03T22:22:55.324Z,2.90
2022-08-03T22:25:25.620Z,2.97
2022-08-03T22:27:54.426Z,2.53
2022-08-03T22:30:22.948Z,2.53
2022-08-03T22:32:51.782Z,3.35
2022-08-03T22:35:20.327Z,2.83
2022-08-03T22:37:53.366Z,2.38
2022-08-03T22:40:21.802Z,2.78
2022-08-03T22:42:52.506Z,2.72
2022-08-03T22:46:07.301Z,2.65
2022-08-03T22:48:09.972Z,2.58
2022-08-03T22:50:38.851Z,2.60
2022-08-03T22:53:08.638Z,2.53
2022-08-03T22:55:37.522Z,2.70
2022-08-03T22:58:05.889Z,2.90
2022-08-03T23:00:34.363Z,2.50
2022-08-03T23:03:03.828Z,2.75
2022-08-03T23:06:00.649Z,2.55
2022-08-03T23:08:25.325Z,2.78
2022-08-03T23:10:54.105Z,2.65
2022-08-03T23:13:25.916Z,2.25
2022-08-03T23:15:58.725Z,1.95
2022-08-03T23:18:34.103Z,2.10
2022-08-03T23:21:11.054Z,2.95
2022-08-03T23:23:44.592Z,2.35
2022-08-03T23:26:14.063Z,2.45
2022-08-03T23:28:43.408Z,2.20
2022-08-03T23:31:12.024Z,2.42
2022-08-03T23:33:40.828Z,2.58
2022-08-03T23:36:31.023Z,2.13
2022-08-03T23:38:59.169Z,2.58
2022-08-03T23:41:27.594Z,2.30
2022-08-03T23:43:56.317Z,2.47
2022-08-03T23:46:25.322Z,2.17
2022-08-03T23:48:56.549Z,2.20
2022-08-03T23:51:29.113Z,2.22
2022-08-03T23:54:03.052Z,2.67
2022-08-03T23:56:36.047Z,2.80
2022-08-03T23:59:08.878Z,2.88
